< Cyclone 202003 2020 Season Cyclone 202006 >
Cyclone 202005 (Damien)
General InformationTrack Information on Google MapsDetailed Wind Information || ResourceGoogle EarthGE AnimationAtom FeedGeoJSON
Detalied Best Track (Time Zone = UTC)
Year Month Day Hour Lat. Long. Pressure (hPa) Wind (kt) Class Image Chart
2020 2 3 00 -16.6 129.3 1005 15 2 Image --
2020 2 3 06 -16.5 129.0 1002 15 2 Image --
2020 2 3 12 -16.4 128.7 1004 15 2 Image --
2020 2 3 18 -16.1 127.8 1002 15 2 Image --
2020 2 4 00 -15.9 127.1 1004 15 2 Image --
2020 2 4 06 -16.0 126.4 1000 15 2 Image --
2020 2 4 12 -16.1 125.7 1001 15 2 Image --
2020 2 4 18 -16.3 124.8 1000 20 2 Image --
2020 2 5 00 -16.4 124.0 1000 20 2 Image --
2020 2 5 06 -16.5 122.9 999 20 2 Image --
2020 2 5 12 -16.7 122.0 998 25 2 Image --
2020 2 5 18 -16.6 121.6 996 30 2 Image --
2020 2 6 00 -16.7 120.2 995 30 2 Image --
2020 2 6 06 -17.2 119.7 992 35 3 Image --
2020 2 6 09 -17.5 119.2 990 40 3 Image --
2020 2 6 12 -17.3 118.4 990 40 3 Image --
2020 2 6 18 -17.4 117.9 985 50 4 Image --
2020 2 7 00 -17.8 117.4 976 65 5 Image --
2020 2 7 06 -18.0 117.0 971 65 5 Image --
2020 2 7 09 -18.2 116.9 971 65 5 Image --
2020 2 7 12 -18.5 116.8 965 75 5 Image --
2020 2 7 15 -18.7 116.7 963 75 5 Image --
2020 2 7 18 -19.0 116.5 963 75 5 Image --
2020 2 7 21 -19.3 116.5 958 80 5 Image --
2020 2 8 00 -19.5 116.4 958 80 5 Image --
2020 2 8 01 -19.6 116.5 958 80 5 Image --
2020 2 8 02 -19.7 116.5 958 80 5 Image --
2020 2 8 03 -19.8 116.5 955 85 5 Image --
2020 2 8 04 -20.0 116.6 955 85 5 Image --
2020 2 8 05 -20.2 116.6 955 85 5 Image --
2020 2 8 06 -20.3 116.7 955 85 5 Image --
2020 2 8 07 -20.5 116.7 955 85 5 Image --
2020 2 8 08 -20.7 116.8 955 85 5 Image --
2020 2 8 09 -20.8 116.8 955 80 5 Image --
2020 2 8 12 -21.1 117.0 967 70 5 Image --
2020 2 8 15 -21.4 117.2 972 60 4 Image --
2020 2 8 18 -21.8 117.4 978 50 4 Image --
2020 2 9 00 -22.5 117.5 986 35 3 Image --
2020 2 9 03 -23.0 117.5 989 35 3 Image --
2020 2 9 06 -23.4 117.6 992 30 2 Image --
2020 2 9 12 -23.7 117.6 992 30 2 Image --
2020 2 9 18 -24.0 117.7 992 30 2 Image --
2020 2 10 00 -24.6 117.7 996 25 2 Image --
2020 2 10 06 -25.2 117.8 996 25 2 Image --
2020 2 10 12 -25.6 118.0 998 25 2 Image --
< Cyclone 202003 2020 Season Cyclone 202006 >

Help